Record high temperature 38.5°C Record low temperature -6.1°C Record high gust 94.9 km/h Record high average 70.9 km/h Record daily rain 58.2 mm Record low windchill -9.9°C Record high barometer 1045.9 hPa Record low barometer 985.2 hPa
Daily high pressure 1025.2 hPa Daily low pressure 1023.3 hPa Daily low windchill 9.8°C Daily high heat index 17.8°C Daily high gust speed 13.0 kmh NNW Daily high average speed 10.6 kmh NNW
Stazione meteo Crema centro
ULTIMO RILEVAMENTO ALLE ORE: 18:00 GIORNO: 21 Ottobre 2020 prossimo aggiornamento ore: 18:05
Tempo presenteDusk/Dry/Nubi sparse Temperatura attuale 15.6°C (60.0°F), temperatura apparente 15.2°C, Apparent temp solar 17.3°C
Temperatura massima (da mezzanotte)17.8°C alle ore: 14:24 Temperatura minima (da mezzanotte)9.8°C alle ore: 08:06
Forza media vento (dieci minuti)4.6 kmh (2.5 kts) Direzione vento (dieci minuti)NNW (337°)
Temperatura vento 15.6°C Massima forza (ultima ora)9.7 kmh (5.2 kts) alle ore: 17:57
Massima forza (da mezzanotte)13.0 kmh (7.0 kts) alle ore: 13:44 Massimo vento 1 minuto (da mezzanotte)10.6 kmh (5.7 kts) alle ore: 15:23
Pioggia (ultima ora)0.0 mm Pioggia (da mezzanotte)0.0 mm (0.00 in.)---
Pioggia Questo mese 68.3 mm (2.69 in.) Pioggia Questo anno 600.5 mm (23.64 in.)
Massima pioggia per minuto (ultima ora)0.0 mm/min Massima pioggia per ora (ultime 6 ore)0.0 mm/ore
Pioggia di ieri 0.0 mm DewPoint 12.1°C (Wet Bulb :13.7°C )
Umidita 80 %, Humidex 17.9°C Pressione S.L.M.1023.5 hPa (QNH 1023.5 hPa
Variazione pressione 0.0 hPa (ultima ora) Tendenza (ultime 1 ore)Stazionaria
Variazione pressione (ultime 12 ore)-0.4 hPa Variazione pressione (ultime 6 ore)-1.6 hPa
Current Solar 14 W/mē
Maximum solar (da mezzanotte) 737 W/mē Minimum solar (da mezzanotte)0 W/mē
Current 04:15 hours of sunshine today, current sky: Dusk/Dry/Nubi sparse
Sunshine hours for the year: 1668:38 hrs Sunshine hours for the month: 86:45 hrs
Current evapotranspiration rate 1.3 mm per day. Yesterday's reading 0.5

Questa pagina e` aggiornata con i dati della stazione meteo DAVIS VP Premere Reload o Refresh per facilitare la lettura dei dati aggiornati.

Status report of weather station: IK2CHZ - Crema meteo



Weather report/warning/Metars

Milano / Linate, Italy (LIML) 45-26N 009-17E 103M
Oct 21, 2020 - 11:20 AM EDT / 2020.10.21 1520 UTC
Wind: from the WNW (290 degrees) at 3 MPH (3 KT):0
Visibility: 3 mile(s):0
Sky conditions: partly cloudy
Temperature: 60 F (16 C)
Dew Point: 50 F (10 C)
Relative Humidity: 67%
Pressure (altimeter): 30.21 in. Hg (1023 hPa)
ob: LIML 211520Z 29003KT 6000 FEW020 SCT050 16/10 Q1023 NOSIG
cycle: 15
Bergamo / Orio Al Serio, Italy (LIME) 45-40N 009-42E 237M
Oct 21, 2020 - 11:20 AM EDT / 2020.10.21 1520 UTC
Wind: from the SW (230 degrees) at 7 MPH (6 KT):0
Visibility: greater than 7 mile(s):0
Sky conditions: mostly cloudy
Temperature: 60 F (16 C)
Dew Point: 48 F (9 C)
Relative Humidity: 63%
Pressure (altimeter): 30.21 in. Hg (1023 hPa)
ob: LIME 211520Z 23006KT 9999 BKN060 16/09 Q1023 NOSIG
cycle: 15
Piacenza, Italy (LIMS) 44-55N 009-44E 138M
Oct 21, 2020 - 10:55 AM EDT / 2020.10.21 1455 UTC
Wind: from the NNW (330 degrees) at 6 MPH (5 KT):0
Visibility: 3 mile(s):0
Sky conditions: mostly cloudy
Temperature: 62 F (17 C)
Dew Point: 55 F (13 C)
Relative Humidity: 77%
Pressure (altimeter): 30.18 in. Hg (1022 hPa)
ob: LIMS 211455Z 33005KT 6000 BKN060 17/13 Q1022
cycle: 15